createdAt,value
2018-05-25T00:00:14.546Z,81.20
2018-05-25T00:02:40.978Z,81.30
2018-05-25T00:05:07.374Z,81.80
2018-05-25T00:07:33.871Z,81.90
2018-05-25T00:10:01.238Z,83.00
2018-05-25T00:12:27.639Z,82.90
2018-05-25T00:14:54.045Z,82.90
2018-05-25T00:17:20.428Z,82.20
2018-05-25T00:19:46.932Z,81.80
2018-05-25T00:22:14.425Z,81.10
2018-05-25T00:24:40.902Z,80.80
2018-05-25T00:27:07.298Z,80.70
2018-05-25T00:29:33.685Z,81.30
2018-05-25T00:32:00.096Z,81.70
2018-05-25T00:34:26.503Z,81.70
2018-05-25T00:36:52.932Z,81.50
2018-05-25T00:39:19.328Z,81.40
2018-05-25T00:41:46.451Z,81.20
2018-05-25T00:44:19.866Z,81.20
2018-05-25T00:46:46.259Z,81.10
2018-05-25T00:49:12.659Z,81.00
2018-05-25T00:51:39.103Z,80.90
2018-05-25T00:54:06.227Z,81.10
2018-05-25T00:56:33.364Z,81.30
2018-05-25T00:59:00.488Z,81.40
2018-05-25T01:01:26.902Z,81.30
2018-05-25T01:03:53.282Z,81.30
2018-05-25T01:06:19.907Z,81.30
2018-05-25T01:08:47.399Z,81.20
2018-05-25T01:11:13.883Z,81.10
2018-05-25T01:13:40.313Z,80.90
2018-05-25T01:16:06.719Z,80.70
2018-05-25T01:18:33.132Z,81.00
2018-05-25T01:20:59.695Z,80.80
2018-05-25T01:23:26.149Z,80.70
2018-05-25T01:25:52.534Z,80.90
2018-05-25T01:28:18.920Z,80.90
2018-05-25T01:30:45.308Z,81.30
2018-05-25T01:33:12.037Z,80.90
2018-05-25T01:35:38.534Z,81.00
2018-05-25T01:38:04.973Z,80.40
2018-05-25T01:40:31.374Z,80.90
2018-05-25T01:42:57.842Z,81.20
2018-05-25T01:45:24.997Z,80.90
2018-05-25T01:47:52.170Z,81.00
2018-05-25T01:50:18.610Z,80.80
2018-05-25T01:52:45.095Z,80.50
2018-05-25T01:55:11.502Z,80.60
2018-05-25T01:57:37.927Z,80.60
2018-05-25T02:00:04.335Z,80.90
2018-05-25T02:02:30.713Z,79.70
2018-05-25T02:04:57.920Z,81.40
2018-05-25T02:07:25.163Z,81.80
2018-05-25T02:09:52.317Z,81.80
2018-05-25T02:12:19.445Z,81.90
2018-05-25T02:14:45.875Z,81.90
2018-05-25T02:17:13.021Z,81.90
2018-05-25T02:19:41.337Z,82.10
2018-05-25T02:22:07.762Z,81.90
2018-05-25T02:24:34.136Z,82.10
2018-05-25T02:27:00.608Z,82.30
2018-05-25T02:29:27.048Z,81.90
2018-05-25T02:31:54.184Z,81.60
2018-05-25T02:34:20.671Z,81.60
2018-05-25T02:36:47.088Z,82.30
2018-05-25T02:39:13.466Z,80.70
2018-05-25T02:41:40.158Z,81.30
2018-05-25T02:44:06.644Z,81.10
2018-05-25T02:46:33.123Z,80.70
2018-05-25T02:48:59.507Z,81.20
2018-05-25T02:51:25.939Z,81.20
2018-05-25T02:53:53.217Z,81.50
2018-05-25T02:56:19.657Z,81.20
2018-05-25T02:58:46.871Z,81.60
2018-05-25T03:01:13.279Z,81.50
2018-05-25T03:03:39.683Z,81.60
2018-05-25T03:06:06.285Z,83.20
2018-05-25T03:08:32.713Z,82.70
2018-05-25T03:10:59.119Z,83.50
2018-05-25T03:13:25.501Z,83.60
2018-05-25T03:15:52.669Z,83.50
2018-05-25T03:18:19.277Z,83.50
2018-05-25T03:20:45.995Z,83.30
2018-05-25T03:23:12.436Z,83.40
2018-05-25T03:25:38.949Z,83.60
2018-05-25T03:28:05.314Z,84.10
2018-05-25T03:30:32.483Z,84.00
2018-05-25T03:32:59.631Z,84.10
2018-05-25T03:35:26.958Z,84.20
2018-05-25T03:37:53.370Z,84.20
2018-05-25T03:40:22.624Z,84.20
2018-05-25T03:42:49.750Z,84.70
2018-05-25T03:45:16.184Z,84.60
2018-05-25T03:47:43.337Z,85.10
2018-05-25T03:50:10.525Z,83.60
2018-05-25T03:52:36.896Z,84.20
2018-05-25T03:55:03.280Z,84.20
2018-05-25T03:57:29.674Z,84.20
2018-05-25T04:00:15.530Z,84.20
2018-05-25T04:02:41.956Z,84.10
2018-05-25T04:05:09.215Z,84.30
2018-05-25T04:07:35.684Z,84.30
2018-05-25T04:10:02.896Z,84.20
2018-05-25T04:12:29.358Z,84.10
2018-05-25T04:14:55.765Z,84.10
2018-05-25T04:17:22.173Z,84.30
2018-05-25T04:19:48.587Z,84.10
2018-05-25T04:22:15.729Z,83.60
2018-05-25T04:24:42.928Z,83.30
2018-05-25T04:27:09.362Z,83.10
2018-05-25T04:29:35.769Z,82.80
2018-05-25T04:32:02.201Z,82.80
2018-05-25T04:34:28.929Z,82.70
2018-05-25T04:36:56.151Z,82.40
2018-05-25T04:39:22.574Z,82.40
2018-05-25T04:41:48.961Z,81.90
2018-05-25T04:44:15.452Z,81.60
2018-05-25T04:46:41.892Z,81.20
2018-05-25T04:49:08.287Z,81.10
2018-05-25T04:51:34.677Z,80.70
2018-05-25T04:54:01.905Z,79.90
2018-05-25T04:56:29.108Z,80.50
2018-05-25T04:58:55.710Z,79.90
2018-05-25T05:01:22.047Z,80.00
2018-05-25T05:03:48.454Z,80.00
2018-05-25T05:06:14.848Z,79.60
2018-05-25T05:08:41.274Z,79.40
2018-05-25T05:11:07.658Z,79.10
2018-05-25T05:13:34.900Z,78.50
2018-05-25T05:16:01.297Z,78.40
2018-05-25T05:18:27.918Z,77.50
2018-05-25T05:20:55.663Z,77.20
2018-05-25T05:23:22.034Z,76.90
2018-05-25T05:25:48.739Z,76.80
2018-05-25T05:28:15.195Z,76.60
2018-05-25T05:30:41.639Z,76.30
2018-05-25T05:33:08.557Z,75.60
2018-05-25T05:35:35.112Z,75.70
2018-05-25T05:38:01.494Z,75.40
2018-05-25T05:40:29.034Z,74.60
2018-05-25T05:42:55.433Z,74.60
2018-05-25T05:45:22.349Z,74.00
2018-05-25T05:47:49.019Z,73.40
2018-05-25T05:50:15.554Z,73.00
2018-05-25T05:52:42.100Z,72.70
2018-05-25T05:55:08.748Z,72.00
2018-05-25T05:57:35.165Z,71.20
2018-05-25T06:00:01.632Z,71.10
2018-05-25T06:02:28.112Z,70.60
2018-05-25T06:04:54.837Z,69.60
2018-05-25T06:07:21.216Z,69.90
2018-05-25T06:09:47.615Z,70.00
2018-05-25T06:12:14.410Z,69.50
2018-05-25T06:14:40.776Z,68.80
2018-05-25T06:17:08.139Z,68.40
2018-05-25T06:19:34.498Z,68.10
2018-05-25T06:22:00.931Z,67.50
2018-05-25T06:24:27.324Z,67.20
2018-05-25T06:26:53.768Z,66.50
2018-05-25T06:29:20.145Z,66.60
2018-05-25T06:31:46.530Z,65.50
2018-05-25T06:34:13.910Z,65.10
2018-05-25T06:36:40.282Z,64.30
2018-05-25T06:39:06.754Z,64.40
2018-05-25T06:41:33.216Z,64.20
2018-05-25T06:44:00.357Z,63.80
2018-05-25T06:46:27.162Z,63.80
2018-05-25T06:48:54.288Z,63.20
2018-05-25T06:51:21.059Z,63.00
2018-05-25T06:53:47.405Z,62.70
2018-05-25T06:56:14.124Z,62.50
2018-05-25T06:58:41.477Z,63.10
2018-05-25T07:01:08.819Z,61.50
2018-05-25T07:03:35.965Z,60.60
2018-05-25T07:06:09.976Z,59.60
2018-05-25T07:08:37.163Z,60.70
2018-05-25T07:11:03.550Z,60.60
2018-05-25T07:13:30.732Z,60.40
2018-05-25T07:15:57.195Z,60.50
2018-05-25T07:18:23.577Z,60.40
2018-05-25T07:20:50.717Z,59.70
2018-05-25T07:23:17.182Z,59.40
2018-05-25T07:25:43.558Z,59.40
2018-05-25T07:28:10.014Z,59.70
2018-05-25T07:30:36.379Z,59.70
2018-05-25T07:33:04.893Z,58.70
2018-05-25T07:35:31.347Z,59.40
2018-05-25T07:37:57.718Z,58.60
2018-05-25T07:40:24.159Z,59.40
2018-05-25T07:42:51.232Z,58.80
2018-05-25T07:45:17.713Z,58.40
2018-05-25T07:47:44.115Z,58.20
2018-05-25T07:50:10.545Z,57.80
2018-05-25T07:52:36.895Z,57.80
2018-05-25T07:55:03.677Z,58.00
2018-05-25T07:57:30.446Z,57.30
2018-05-25T07:59:56.886Z,56.80
2018-05-25T08:02:23.310Z,55.90
2018-05-25T08:04:49.738Z,55.90
2018-05-25T08:07:16.144Z,55.90
2018-05-25T08:09:43.298Z,55.80
2018-05-25T08:12:10.476Z,55.10
2018-05-25T08:14:36.953Z,55.10
2018-05-25T08:17:03.445Z,52.70
2018-05-25T08:19:29.881Z,54.80
2018-05-25T08:21:56.325Z,54.30
2018-05-25T08:24:23.023Z,54.60
2018-05-25T08:26:49.412Z,54.60
2018-05-25T08:29:15.957Z,54.60
2018-05-25T08:31:42.351Z,54.10
2018-05-25T08:34:08.758Z,54.10
2018-05-25T08:36:35.163Z,53.70
2018-05-25T08:39:01.588Z,53.50
2018-05-25T08:41:28.054Z,52.60
2018-05-25T08:43:54.794Z,52.70
2018-05-25T08:46:21.179Z,52.70
2018-05-25T08:48:47.693Z,52.00
2018-05-25T08:51:14.296Z,51.50
2018-05-25T08:53:40.723Z,51.70
2018-05-25T08:56:07.862Z,51.90
2018-05-25T08:58:35.600Z,50.70
2018-05-25T09:01:02.076Z,50.80
2018-05-25T09:03:29.325Z,50.00
2018-05-25T09:05:55.728Z,50.00
2018-05-25T09:08:22.207Z,50.10
2018-05-25T09:10:48.699Z,49.70
2018-05-25T09:13:16.665Z,49.80
2018-05-25T09:15:43.065Z,49.40
2018-05-25T09:18:09.501Z,50.60
2018-05-25T09:20:35.928Z,49.90
2018-05-25T09:23:02.447Z,49.70
2018-05-25T09:25:28.959Z,49.30
2018-05-25T09:27:56.157Z,48.50
2018-05-25T09:30:22.723Z,48.50
2018-05-25T09:32:49.109Z,47.90
2018-05-25T09:35:15.511Z,47.30
2018-05-25T09:37:42.736Z,47.10
2018-05-25T09:40:09.124Z,47.10
2018-05-25T09:42:35.709Z,47.60
2018-05-25T09:45:03.405Z,47.30
2018-05-25T09:47:29.814Z,46.00
2018-05-25T09:49:57.078Z,45.70
2018-05-25T09:52:25.365Z,44.40
2018-05-25T09:54:51.771Z,44.40
2018-05-25T09:57:19.833Z,43.70
2018-05-25T09:59:46.284Z,43.90
2018-05-25T10:02:13.610Z,42.30
2018-05-25T10:04:40.077Z,42.10
2018-05-25T10:07:07.390Z,42.90
2018-05-25T10:09:33.757Z,42.70
2018-05-25T10:12:00.983Z,41.50
2018-05-25T10:14:27.450Z,40.80
2018-05-25T10:16:54.639Z,40.50
2018-05-25T10:19:22.170Z,40.50
2018-05-25T10:21:48.704Z,40.10
2018-05-25T10:24:15.088Z,39.70
2018-05-25T10:26:41.745Z,38.90
2018-05-25T10:29:08.119Z,38.40
2018-05-25T10:31:34.602Z,37.60
2018-05-25T10:34:01.008Z,36.60
2018-05-25T10:36:28.645Z,37.30
2018-05-25T10:38:55.100Z,38.30
2018-05-25T10:41:21.494Z,38.50
2018-05-25T10:43:48.709Z,38.70
2018-05-25T10:46:15.238Z,38.70
2018-05-25T10:48:41.632Z,40.60
2018-05-25T10:51:08.187Z,40.40
2018-05-25T10:53:34.621Z,40.20
2018-05-25T10:56:01.095Z,40.70
2018-05-25T10:58:27.446Z,40.90
2018-05-25T11:00:54.081Z,39.70
2018-05-25T11:03:20.457Z,37.90
2018-05-25T11:05:46.823Z,37.40
2018-05-25T11:08:13.231Z,37.20
2018-05-25T11:10:39.646Z,36.70
2018-05-25T11:13:06.037Z,37.40
2018-05-25T11:15:33.233Z,38.00
2018-05-25T11:17:59.608Z,38.00
2018-05-25T11:20:26.766Z,38.40
2018-05-25T11:22:53.900Z,37.40
2018-05-25T11:25:21.112Z,37.00
2018-05-25T11:27:47.489Z,36.20
2018-05-25T11:30:14.635Z,37.70
2018-05-25T11:32:42.024Z,36.60
2018-05-25T11:35:08.910Z,36.60
2018-05-25T11:37:35.356Z,35.80
2018-05-25T11:40:01.821Z,35.00
2018-05-25T11:42:29.050Z,33.80
2018-05-25T11:44:55.469Z,33.80
2018-05-25T11:47:21.868Z,33.60
2018-05-25T11:49:48.380Z,31.20
2018-05-25T11:52:15.216Z,33.20
2018-05-25T11:54:41.622Z,32.60
2018-05-25T11:57:08.038Z,32.80
2018-05-25T11:59:34.422Z,31.90
2018-05-25T12:02:00.834Z,30.90
2018-05-25T12:04:27.935Z,34.20
2018-05-25T12:06:54.465Z,34.20
2018-05-25T12:09:20.853Z,34.20
2018-05-25T12:11:48.005Z,30.90
2018-05-25T12:14:15.140Z,30.20
2018-05-25T12:16:42.322Z,30.30
2018-05-25T12:19:08.720Z,30.30
2018-05-25T12:21:35.113Z,29.50
2018-05-25T12:24:01.482Z,31.00
2018-05-25T12:26:27.857Z,31.70
2018-05-25T12:28:54.597Z,32.50
2018-05-25T12:31:20.987Z,32.30
2018-05-25T12:33:47.350Z,32.70
2018-05-25T12:36:13.918Z,31.30
2018-05-25T12:38:40.302Z,29.90
2018-05-25T12:41:07.447Z,30.60
2018-05-25T12:43:34.583Z,29.70
2018-05-25T12:46:01.007Z,29.70
2018-05-25T12:48:27.403Z,29.30
2018-05-25T12:50:53.795Z,28.60
2018-05-25T12:53:20.890Z,28.80
2018-05-25T12:55:47.482Z,28.90
2018-05-25T12:58:16.562Z,28.60
2018-05-25T13:00:42.925Z,28.30
2018-05-25T13:03:12.763Z,27.80
2018-05-25T13:05:41.336Z,27.80
2018-05-25T13:08:09.714Z,27.40
2018-05-25T13:10:36.669Z,27.90
2018-05-25T13:13:06.145Z,28.00
2018-05-25T13:15:32.562Z,29.30
2018-05-25T13:17:59.746Z,28.10
2018-05-25T13:20:26.140Z,28.10
2018-05-25T13:22:53.315Z,28.80
2018-05-25T13:25:19.701Z,28.80
2018-05-25T13:27:46.091Z,28.60
2018-05-25T13:30:12.668Z,27.60
2018-05-25T13:32:39.030Z,27.70
2018-05-25T13:35:06.272Z,26.40
2018-05-25T13:37:33.412Z,26.30
2018-05-25T13:39:59.826Z,26.20
2018-05-25T13:42:26.198Z,25.90
2018-05-25T13:44:53.456Z,24.30
2018-05-25T13:47:19.946Z,24.20
2018-05-25T13:49:46.393Z,23.60
2018-05-25T13:52:12.781Z,23.60
2018-05-25T13:54:39.212Z,23.40
2018-05-25T13:57:05.834Z,23.10
2018-05-25T13:59:32.301Z,23.60
2018-05-25T14:01:58.721Z,22.80
2018-05-25T14:04:25.818Z,24.10
2018-05-25T14:06:53.251Z,23.00
2018-05-25T14:09:19.724Z,23.10
2018-05-25T14:11:47.073Z,23.60
2018-05-25T14:14:14.413Z,22.80
2018-05-25T14:16:41.524Z,22.60
2018-05-25T14:19:08.360Z,22.60
2018-05-25T14:21:34.736Z,22.60
2018-05-25T14:24:01.108Z,23.50
2018-05-25T14:26:27.692Z,25.30
2018-05-25T14:28:55.553Z,25.50
2018-05-25T14:31:22.115Z,25.50
2018-05-25T14:33:49.220Z,21.70
2018-05-25T14:36:15.778Z,21.60
2018-05-25T14:38:42.241Z,22.10
2018-05-25T14:41:09.312Z,21.30
2018-05-25T14:43:35.865Z,21.20
2018-05-25T14:46:02.290Z,23.00
2018-05-25T14:48:28.660Z,23.00
2018-05-25T14:50:55.810Z,22.70
2018-05-25T14:53:22.276Z,22.30
2018-05-25T14:55:49.613Z,21.10
2018-05-25T14:58:16.843Z,20.90
2018-05-25T15:00:43.360Z,20.80
2018-05-25T15:03:09.941Z,20.90
2018-05-25T15:05:36.417Z,21.40
2018-05-25T15:08:03.002Z,21.90
2018-05-25T15:10:30.194Z,22.20
2018-05-25T15:12:57.133Z,22.10
2018-05-25T15:15:23.644Z,22.80
2018-05-25T15:17:50.947Z,21.10
2018-05-25T15:20:17.307Z,21.10
2018-05-25T15:22:43.821Z,20.20
2018-05-25T15:25:10.389Z,21.20
2018-05-25T15:27:37.499Z,20.40
2018-05-25T15:30:03.941Z,20.70
2018-05-25T15:32:30.398Z,20.20
2018-05-25T15:34:57.010Z,20.70
2018-05-25T15:37:23.384Z,22.00
2018-05-25T15:39:50.620Z,22.30
2018-05-25T15:42:17.755Z,22.10
2018-05-25T15:44:51.174Z,22.10
2018-05-25T15:47:18.401Z,20.70
2018-05-25T15:49:45.184Z,20.70
2018-05-25T15:52:12.376Z,20.70
2018-05-25T15:54:38.768Z,21.20
2018-05-25T15:57:05.151Z,20.60
2018-05-25T15:59:31.624Z,19.90
2018-05-25T16:01:58.868Z,20.30
2018-05-25T16:04:26.025Z,20.00
2018-05-25T16:06:53.968Z,19.30
2018-05-25T16:09:21.296Z,19.20
2018-05-25T16:11:48.230Z,20.50
2018-05-25T16:14:14.658Z,21.10
2018-05-25T16:16:41.767Z,20.50
2018-05-25T16:19:08.866Z,20.90
2018-05-25T16:21:35.279Z,21.00
2018-05-25T16:24:01.832Z,20.50
2018-05-25T16:26:28.256Z,20.70
2018-05-25T16:28:54.751Z,20.50
2018-05-25T16:31:21.100Z,20.70
2018-05-25T16:33:47.501Z,20.00
2018-05-25T16:36:14.630Z,20.10
2018-05-25T16:38:41.007Z,19.60
2018-05-25T16:41:08.229Z,20.70
2018-05-25T16:43:34.712Z,20.60
2018-05-25T16:46:01.065Z,21.20
2018-05-25T16:48:27.470Z,20.70
2018-05-25T16:50:53.961Z,20.70
2018-05-25T16:53:20.317Z,20.50
2018-05-25T16:55:47.781Z,20.80
2018-05-25T16:58:14.986Z,21.30
2018-05-25T17:00:41.378Z,21.30
2018-05-25T17:03:07.723Z,21.30
2018-05-25T17:05:34.129Z,22.40
2018-05-25T17:08:00.678Z,21.30
2018-05-25T17:10:27.301Z,21.10
2018-05-25T17:12:53.723Z,21.80
2018-05-25T17:15:20.213Z,22.40
2018-05-25T17:17:46.684Z,23.40
2018-05-25T17:20:13.817Z,24.10
2018-05-25T17:22:40.244Z,24.00
2018-05-25T17:25:06.957Z,24.00
2018-05-25T17:27:33.697Z,24.20
2018-05-25T17:30:00.326Z,24.20
2018-05-25T17:32:26.843Z,24.60
2018-05-25T17:34:53.234Z,24.20
2018-05-25T17:37:20.719Z,24.80
2018-05-25T17:39:47.584Z,24.80
2018-05-25T17:42:14.119Z,25.00
2018-05-25T17:44:41.346Z,25.50
2018-05-25T17:47:08.444Z,24.20
2018-05-25T17:49:34.861Z,24.20
2018-05-25T17:52:01.240Z,23.60
2018-05-25T17:54:28.325Z,23.70
2018-05-25T17:56:54.701Z,24.20
2018-05-25T17:59:21.073Z,25.50
2018-05-25T18:01:47.599Z,26.90
2018-05-25T18:04:14.803Z,28.30
2018-05-25T18:06:41.207Z,28.30
2018-05-25T18:09:07.602Z,29.00
2018-05-25T18:11:34.007Z,29.50
2018-05-25T18:14:00.697Z,30.40
2018-05-25T18:16:28.155Z,31.00
2018-05-25T18:18:54.596Z,30.90
2018-05-25T18:21:20.999Z,32.00
2018-05-25T18:23:47.462Z,32.40
2018-05-25T18:26:14.085Z,33.30
2018-05-25T18:28:41.204Z,34.60
2018-05-25T18:31:07.786Z,34.50
2018-05-25T18:33:34.420Z,35.10
2018-05-25T18:36:00.869Z,35.70
2018-05-25T18:38:27.390Z,36.70
2018-05-25T18:40:53.796Z,37.90
2018-05-25T18:43:20.932Z,39.20
2018-05-25T18:45:48.793Z,39.30
2018-05-25T18:48:15.200Z,39.30
2018-05-25T18:50:41.605Z,39.70
2018-05-25T18:53:08.044Z,40.40
2018-05-25T18:55:34.522Z,40.40
2018-05-25T18:58:00.910Z,41.20
2018-05-25T19:00:27.357Z,41.40
2018-05-25T19:02:53.758Z,41.80
2018-05-25T19:05:21.013Z,42.70
2018-05-25T19:07:48.278Z,42.50
2018-05-25T19:10:14.689Z,42.50
2018-05-25T19:12:41.877Z,42.70
2018-05-25T19:15:08.282Z,42.70
2018-05-25T19:17:34.647Z,43.00
2018-05-25T19:20:01.179Z,43.10
2018-05-25T19:22:27.657Z,43.00
2018-05-25T19:24:54.824Z,43.20
2018-05-25T19:27:21.993Z,43.70
2018-05-25T19:29:48.516Z,43.60
2018-05-25T19:32:15.703Z,43.60
2018-05-25T19:34:42.409Z,43.50
2018-05-25T19:37:09.617Z,43.70
2018-05-25T19:39:37.689Z,43.90
2018-05-25T19:42:04.369Z,43.80
2018-05-25T19:44:30.904Z,43.20
2018-05-25T19:46:57.294Z,42.50
2018-05-25T19:49:23.761Z,43.50
2018-05-25T19:51:50.946Z,44.10
2018-05-25T19:54:17.357Z,44.10
2018-05-25T19:56:43.712Z,44.10
2018-05-25T19:59:10.913Z,44.50
2018-05-25T20:01:38.054Z,44.40
2018-05-25T20:04:05.528Z,44.40
2018-05-25T20:06:32.691Z,44.30
2018-05-25T20:08:59.123Z,44.20
2018-05-25T20:11:25.616Z,44.20
2018-05-25T20:13:52.052Z,44.30
2018-05-25T20:16:18.507Z,42.80
2018-05-25T20:18:44.847Z,44.40
2018-05-25T20:21:12.076Z,46.70
2018-05-25T20:23:38.541Z,46.00
2018-05-25T20:26:05.039Z,45.90
2018-05-25T20:28:31.471Z,45.60
2018-05-25T20:30:58.664Z,45.70
2018-05-25T20:33:25.097Z,45.70
2018-05-25T20:35:51.553Z,46.50
2018-05-25T20:38:18.028Z,46.60
2018-05-25T20:40:44.763Z,46.80
2018-05-25T20:43:11.198Z,46.70
2018-05-25T20:45:37.665Z,46.60
2018-05-25T20:48:04.121Z,46.40
2018-05-25T20:50:30.612Z,46.50
2018-05-25T20:52:57.752Z,46.60
2018-05-25T20:55:25.013Z,46.80
2018-05-25T20:57:52.486Z,47.80
2018-05-25T21:00:18.881Z,46.90
2018-05-25T21:02:45.377Z,47.20
2018-05-25T21:05:13.618Z,47.80
2018-05-25T21:07:40.165Z,48.30
2018-05-25T21:10:06.745Z,48.30
2018-05-25T21:12:33.220Z,48.50
2018-05-25T21:15:00.570Z,48.90
2018-05-25T21:17:27.895Z,49.00
2018-05-25T21:19:54.314Z,49.00
2018-05-25T21:22:20.802Z,49.70
2018-05-25T21:24:47.954Z,49.40
2018-05-25T21:27:15.123Z,49.70
2018-05-25T21:29:41.570Z,49.70
2018-05-25T21:32:08.282Z,49.80
2018-05-25T21:34:35.427Z,50.30
2018-05-25T21:37:02.582Z,50.40
2018-05-25T21:39:34.632Z,50.50
2018-05-25T21:42:01.867Z,51.00
2018-05-25T21:44:28.225Z,51.00
2018-05-25T21:46:55.349Z,51.40
2018-05-25T21:49:21.748Z,51.40
2018-05-25T21:51:48.349Z,50.70
2018-05-25T21:54:14.987Z,51.70
2018-05-25T21:56:41.484Z,52.10
2018-05-25T21:59:08.013Z,52.30
2018-05-25T22:01:34.380Z,52.50
2018-05-25T22:04:01.635Z,52.80
2018-05-25T22:06:34.759Z,52.90
2018-05-25T22:09:01.342Z,52.90
2018-05-25T22:11:28.484Z,52.80
2018-05-25T22:13:54.915Z,52.80
2018-05-25T22:16:21.337Z,53.20
2018-05-25T22:18:47.757Z,53.20
2018-05-25T22:21:15.512Z,52.80
2018-05-25T22:23:43.308Z,53.20
2018-05-25T22:26:12.015Z,53.40
2018-05-25T22:28:40.526Z,54.40
2018-05-25T22:31:09.283Z,53.80
2018-05-25T22:33:36.413Z,54.10
2018-05-25T22:36:02.817Z,53.90
2018-05-25T22:38:29.176Z,54.00
2018-05-25T22:40:55.578Z,54.30
2018-05-25T22:43:40.913Z,54.30
2018-05-25T22:46:26.680Z,55.60
2018-05-25T22:49:11.701Z,54.90
2018-05-25T22:51:56.717Z,55.20
2018-05-25T22:54:34.480Z,55.20
2018-05-25T22:57:00.877Z,55.30
2018-05-25T22:59:27.376Z,55.50
2018-05-25T23:01:53.781Z,55.70
2018-05-25T23:04:20.211Z,55.50
2018-05-25T23:06:46.625Z,56.00
2018-05-25T23:09:13.048Z,56.20
2018-05-25T23:11:39.474Z,56.30
2018-05-25T23:14:05.873Z,56.30
2018-05-25T23:16:32.244Z,56.60
2018-05-25T23:18:58.660Z,56.60
2018-05-25T23:21:25.810Z,57.10
2018-05-25T23:23:52.933Z,57.20
2018-05-25T23:26:19.329Z,57.20
2018-05-25T23:28:45.732Z,57.20
2018-05-25T23:31:12.140Z,57.10
2018-05-25T23:33:39.280Z,57.50
2018-05-25T23:36:05.854Z,57.50
2018-05-25T23:38:32.221Z,57.60
2018-05-25T23:40:58.645Z,57.70
2018-05-25T23:43:25.347Z,57.60
2018-05-25T23:45:52.571Z,58.30
2018-05-25T23:48:18.979Z,58.20
2018-05-25T23:50:45.368Z,58.60
2018-05-25T23:53:11.753Z,58.80
2018-05-25T23:55:38.856Z,58.80
2018-05-25T23:58:05.348Z,58.90
